createdAt,value
2018-02-04T00:00:32.429Z,1004.06
2018-02-04T00:01:12.981Z,1004.08
2018-02-04T00:01:53.840Z,1004.14
2018-02-04T00:02:34.389Z,1004.13
2018-02-04T00:03:14.945Z,1004.15
2018-02-04T00:03:55.535Z,1004.16
2018-02-04T00:04:36.169Z,1004.15
2018-02-04T00:05:16.756Z,1004.15
2018-02-04T00:05:57.285Z,1004.16
2018-02-04T00:06:37.869Z,1004.18
2018-02-04T00:07:18.454Z,1004.18
2018-02-04T00:07:59.036Z,1004.14
2018-02-04T00:08:39.579Z,1004.13
2018-02-04T00:09:20.164Z,1004.17
2018-02-04T00:10:00.696Z,1004.16
2018-02-04T00:10:41.282Z,1004.18
2018-02-04T00:11:21.862Z,1004.19
2018-02-04T00:12:02.436Z,1004.2
2018-02-04T00:12:42.967Z,1004.21
2018-02-04T00:13:23.554Z,1004.23
2018-02-04T00:14:04.159Z,1004.21
2018-02-04T00:14:44.718Z,1004.23
2018-02-04T00:15:25.331Z,1004.24
2018-02-04T00:16:05.861Z,1004.23
2018-02-04T00:16:46.779Z,1004.23
2018-02-04T00:17:27.335Z,1004.23
2018-02-04T00:18:07.926Z,1004.21
2018-02-04T00:18:48.507Z,1004.25
2018-02-04T00:19:29.071Z,1004.27
2018-02-04T00:20:09.652Z,1004.27
2018-02-04T00:20:50.213Z,1004.29
2018-02-04T00:21:30.796Z,1004.32
2018-02-04T00:22:11.379Z,1004.34
2018-02-04T00:22:51.927Z,1004.31
2018-02-04T00:23:32.486Z,1004.33
2018-02-04T00:24:13.053Z,1004.39
2018-02-04T00:24:53.618Z,1004.38
2018-02-04T00:25:34.170Z,1004.42
2018-02-04T00:26:14.740Z,1004.39
2018-02-04T00:26:55.292Z,1004.42
2018-02-04T00:27:35.845Z,1004.45
2018-02-04T00:28:16.384Z,1004.44
2018-02-04T00:28:56.931Z,1004.46
2018-02-04T00:29:37.491Z,1004.46
2018-02-04T00:30:18.071Z,1004.5
2018-02-04T00:30:58.631Z,1004.5
2018-02-04T00:31:39.192Z,1004.5
2018-02-04T00:32:19.736Z,1004.48
2018-02-04T00:33:00.284Z,1004.53
2018-02-04T00:33:40.834Z,1004.53
2018-02-04T00:34:21.385Z,1004.51
2018-02-04T00:35:01.933Z,1004.56
2018-02-04T00:35:42.497Z,1004.53
2018-02-04T00:36:23.059Z,1004.56
2018-02-04T00:37:03.632Z,1004.6
2018-02-04T00:37:44.194Z,1004.57
2018-02-04T00:38:24.753Z,1004.58
2018-02-04T00:39:05.315Z,1004.57
2018-02-04T00:39:45.854Z,1004.57
2018-02-04T00:40:26.379Z,1004.58
2018-02-04T00:41:06.938Z,1004.58
2018-02-04T00:41:47.470Z,1004.62
2018-02-04T00:42:28.056Z,1004.6
2018-02-04T00:43:08.565Z,1004.63
2018-02-04T00:43:49.121Z,1004.66
2018-02-04T00:44:29.676Z,1004.68
2018-02-04T00:45:10.253Z,1004.67
2018-02-04T00:45:50.811Z,1004.69
2018-02-04T00:46:31.360Z,1004.7
2018-02-04T00:47:11.914Z,1004.72
2018-02-04T00:47:52.480Z,1004.64
2018-02-04T00:48:33.093Z,1004.66
2018-02-04T00:49:13.591Z,1004.69
2018-02-04T00:49:54.129Z,1004.65
2018-02-04T00:50:34.727Z,1004.66
2018-02-04T00:51:15.284Z,1004.68
2018-02-04T00:51:55.858Z,1004.68
2018-02-04T00:52:36.427Z,1004.7
2018-02-04T00:53:16.970Z,1004.71
2018-02-04T00:53:57.528Z,1004.74
2018-02-04T00:54:38.086Z,1004.73
2018-02-04T00:55:18.624Z,1004.73
2018-02-04T00:55:59.177Z,1004.73
2018-02-04T00:56:39.725Z,1004.78
2018-02-04T00:57:20.246Z,1004.82
2018-02-04T00:58:00.815Z,1004.78
2018-02-04T00:58:41.377Z,1004.86
2018-02-04T00:59:21.925Z,1004.8
2018-02-04T01:00:02.473Z,1004.85
2018-02-04T01:00:43.044Z,1004.85
2018-02-04T01:01:23.617Z,1004.82
2018-02-04T01:02:04.159Z,1004.84
2018-02-04T01:02:44.745Z,1004.82
2018-02-04T01:03:25.313Z,1004.81
2018-02-04T01:04:05.864Z,1004.88
2018-02-04T01:04:46.424Z,1004.85
2018-02-04T01:05:27.020Z,1004.88
2018-02-04T01:06:07.588Z,1004.89
2018-02-04T01:06:48.147Z,1004.9
2018-02-04T01:07:28.972Z,1004.92
2018-02-04T01:08:09.402Z,1004.92
2018-02-04T01:08:49.977Z,1004.88
2018-02-04T01:09:33.506Z,1004.88
2018-02-04T01:10:14.091Z,1004.88
2018-02-04T01:10:54.673Z,1004.9
2018-02-04T01:11:35.223Z,1004.87
2018-02-04T01:12:15.824Z,1004.89
2018-02-04T01:12:56.440Z,1004.83
2018-02-04T01:13:37.008Z,1004.89
2018-02-04T01:14:17.561Z,1004.88
2018-02-04T01:14:58.118Z,1004.9
2018-02-04T01:15:38.672Z,1004.86
2018-02-04T01:16:19.237Z,1004.88
2018-02-04T01:16:59.795Z,1004.89
2018-02-04T01:17:40.346Z,1004.9
2018-02-04T01:18:20.935Z,1004.89
2018-02-04T01:19:01.490Z,1004.93
2018-02-04T01:19:42.044Z,1004.9
2018-02-04T01:20:22.597Z,1004.93
2018-02-04T01:21:03.144Z,1004.92
2018-02-04T01:21:43.719Z,1004.93
2018-02-04T01:22:24.276Z,1004.94
2018-02-04T01:23:04.864Z,1004.94
2018-02-04T01:23:45.445Z,1004.92
2018-02-04T01:24:26.055Z,1004.95
2018-02-04T01:25:06.654Z,1004.95
2018-02-04T01:25:47.200Z,1004.98
2018-02-04T01:26:27.740Z,1004.93
2018-02-04T01:27:08.316Z,1004.97
2018-02-04T01:27:48.860Z,1004.96
2018-02-04T01:28:29.419Z,1005
2018-02-04T01:29:09.998Z,1004.99
2018-02-04T01:29:50.570Z,1004.96
2018-02-04T01:30:31.097Z,1004.95
2018-02-04T01:31:11.640Z,1004.96
2018-02-04T01:31:52.182Z,1004.93
2018-02-04T01:32:32.748Z,1004.92
2018-02-04T01:33:13.273Z,1004.95
2018-02-04T01:33:53.823Z,1004.96
2018-02-04T01:34:34.400Z,1005.01
2018-02-04T01:35:14.947Z,1004.94
2018-02-04T01:35:55.510Z,1005
2018-02-04T01:36:36.075Z,1004.99
2018-02-04T01:37:16.678Z,1005.03
2018-02-04T01:37:57.254Z,1005.01
2018-02-04T01:38:37.799Z,1005.01
2018-02-04T01:39:18.381Z,1005.04
2018-02-04T01:39:58.969Z,1004.99
2018-02-04T01:40:39.520Z,1005
2018-02-04T01:41:20.104Z,1004.95
2018-02-04T01:42:00.660Z,1004.99
2018-02-04T01:42:41.238Z,1005
2018-02-04T01:43:21.826Z,1005
2018-02-04T01:44:02.371Z,1005.02
2018-02-04T01:44:42.954Z,1005.02
2018-02-04T01:45:23.510Z,1004.94
2018-02-04T01:46:04.056Z,1004.96
2018-02-04T01:46:44.617Z,1004.97
2018-02-04T01:47:25.166Z,1005
2018-02-04T01:48:05.741Z,1005.02
2018-02-04T01:48:46.273Z,1004.99
2018-02-04T01:49:26.816Z,1005.02
2018-02-04T01:50:07.365Z,1005.04
2018-02-04T01:50:47.900Z,1005.02
2018-02-04T01:51:28.444Z,1005.07
2018-02-04T01:52:08.998Z,1005.06
2018-02-04T01:52:49.609Z,1005.03
2018-02-04T01:53:30.169Z,1005.03
2018-02-04T01:54:10.721Z,1005.03
2018-02-04T01:54:51.332Z,1005.02
2018-02-04T01:55:31.908Z,1005.05
2018-02-04T01:56:12.441Z,1005.02
2018-02-04T01:56:53.014Z,1005.02
2018-02-04T01:57:33.570Z,1005.07
2018-02-04T01:58:14.116Z,1005.04
2018-02-04T01:58:54.681Z,1005.06
2018-02-04T01:59:35.217Z,1005.08
2018-02-04T02:00:15.810Z,1005.13
2018-02-04T02:00:56.315Z,1005.17
2018-02-04T02:01:36.916Z,1005.11
2018-02-04T02:02:17.464Z,1005.17
2018-02-04T02:02:58.049Z,1005.14
2018-02-04T02:03:38.627Z,1005.12
2018-02-04T02:04:19.159Z,1005.15
2018-02-04T02:04:59.739Z,1005.18
2018-02-04T02:05:40.317Z,1005.21
2018-02-04T02:06:20.896Z,1005.17
2018-02-04T02:07:01.472Z,1005.24
2018-02-04T02:07:42.022Z,1005.28
2018-02-04T02:08:22.587Z,1005.27
2018-02-04T02:09:03.135Z,1005.29
2018-02-04T02:09:43.736Z,1005.27
2018-02-04T02:10:24.268Z,1005.27
2018-02-04T02:11:04.840Z,1005.32
2018-02-04T02:11:45.400Z,1005.36
2018-02-04T02:12:25.968Z,1005.37
2018-02-04T02:13:06.547Z,1005.38
2018-02-04T02:13:47.102Z,1005.35
2018-02-04T02:14:27.656Z,1005.33
2018-02-04T02:15:08.208Z,1005.35
2018-02-04T02:15:48.773Z,1005.41
2018-02-04T02:16:29.302Z,1005.38
2018-02-04T02:17:09.859Z,1005.38
2018-02-04T02:17:50.406Z,1005.39
2018-02-04T02:18:30.958Z,1005.4
2018-02-04T02:19:11.517Z,1005.39
2018-02-04T02:19:52.082Z,1005.41
2018-02-04T02:20:32.654Z,1005.42
2018-02-04T02:21:13.202Z,1005.38
2018-02-04T02:21:53.753Z,1005.43
2018-02-04T02:22:34.312Z,1005.43
2018-02-04T02:23:14.920Z,1005.43
2018-02-04T02:23:55.511Z,1005.42
2018-02-04T02:24:36.068Z,1005.49
2018-02-04T02:25:16.615Z,1005.46
2018-02-04T02:25:57.175Z,1005.47
2018-02-04T02:26:37.767Z,1005.45
2018-02-04T02:27:18.326Z,1005.47
2018-02-04T02:27:58.918Z,1005.46
2018-02-04T02:28:39.466Z,1005.45
2018-02-04T02:29:20.028Z,1005.56
2018-02-04T02:30:00.595Z,1005.51
2018-02-04T02:30:41.163Z,1005.55
2018-02-04T02:31:21.780Z,1005.55
2018-02-04T02:32:02.330Z,1005.55
2018-02-04T02:32:42.878Z,1005.5
2018-02-04T02:33:23.443Z,1005.54
2018-02-04T02:34:04.028Z,1005.53
2018-02-04T02:34:44.585Z,1005.55
2018-02-04T02:35:25.176Z,1005.52
2018-02-04T02:36:05.726Z,1005.53
2018-02-04T02:36:46.280Z,1005.52
2018-02-04T02:37:26.832Z,1005.58
2018-02-04T02:38:07.402Z,1005.51
2018-02-04T02:38:47.976Z,1005.57
2018-02-04T02:39:28.527Z,1005.64
2018-02-04T02:40:09.082Z,1005.59
2018-02-04T02:40:49.627Z,1005.65
2018-02-04T02:41:30.158Z,1005.66
2018-02-04T02:42:10.704Z,1005.68
2018-02-04T02:42:51.247Z,1005.65
2018-02-04T02:43:31.837Z,1005.67
2018-02-04T02:44:12.415Z,1005.69
2018-02-04T02:44:52.958Z,1005.7
2018-02-04T02:45:33.535Z,1005.69
2018-02-04T02:46:14.094Z,1005.69
2018-02-04T02:46:54.676Z,1005.73
2018-02-04T02:47:35.259Z,1005.69
2018-02-04T02:48:15.830Z,1005.72
2018-02-04T02:48:56.379Z,1005.75
2018-02-04T02:49:36.943Z,1005.73
2018-02-04T02:50:17.525Z,1005.77
2018-02-04T02:50:58.058Z,1005.73
2018-02-04T02:51:38.653Z,1005.74
2018-02-04T02:52:19.231Z,1005.76
2018-02-04T02:52:59.840Z,1005.69
2018-02-04T02:53:40.419Z,1005.72
2018-02-04T02:54:20.971Z,1005.72
2018-02-04T02:55:01.519Z,1005.76
2018-02-04T02:55:42.072Z,1005.77
2018-02-04T02:56:22.634Z,1005.78
2018-02-04T02:57:03.185Z,1005.76
2018-02-04T02:57:43.760Z,1005.8
2018-02-04T02:58:24.345Z,1005.76
2018-02-04T02:59:04.901Z,1005.75
2018-02-04T02:59:45.497Z,1005.76
2018-02-04T03:00:26.035Z,1005.8
2018-02-04T03:01:06.595Z,1005.82
2018-02-04T03:01:47.145Z,1005.84
2018-02-04T03:02:27.692Z,1005.84
2018-02-04T03:03:08.250Z,1005.82
2018-02-04T03:03:48.811Z,1005.83
2018-02-04T03:04:29.360Z,1005.83
2018-02-04T03:05:09.949Z,1005.84
2018-02-04T03:05:50.484Z,1005.88
2018-02-04T03:06:31.064Z,1005.87
2018-02-04T03:07:11.655Z,1005.92
2018-02-04T03:07:52.212Z,1005.9
2018-02-04T03:08:32.761Z,1005.94
2018-02-04T03:09:13.334Z,1005.95
2018-02-04T03:09:53.919Z,1005.99
2018-02-04T03:10:34.475Z,1005.93
2018-02-04T03:11:15.008Z,1005.97
2018-02-04T03:11:55.556Z,1005.97
2018-02-04T03:12:36.090Z,1005.93
2018-02-04T03:13:16.634Z,1005.95
2018-02-04T03:13:57.186Z,1005.97
2018-02-04T03:14:37.720Z,1005.92
2018-02-04T03:15:18.295Z,1005.93
2018-02-04T03:15:58.836Z,1005.86
2018-02-04T03:16:39.377Z,1005.86
2018-02-04T03:17:19.935Z,1005.86
2018-02-04T03:18:00.472Z,1005.82
2018-02-04T03:18:41.026Z,1005.81
2018-02-04T03:19:21.571Z,1005.83
2018-02-04T03:20:02.127Z,1005.87
2018-02-04T03:20:42.676Z,1005.86
2018-02-04T03:21:23.224Z,1005.9
2018-02-04T03:22:03.790Z,1005.91
2018-02-04T03:22:44.335Z,1005.96
2018-02-04T03:23:24.902Z,1005.96
2018-02-04T03:24:05.456Z,1005.99
2018-02-04T03:24:46.018Z,1006.01
2018-02-04T03:25:26.583Z,1005.99
2018-02-04T03:26:07.139Z,1005.99
2018-02-04T03:26:47.692Z,1006
2018-02-04T03:27:28.268Z,1005.98
2018-02-04T03:28:08.836Z,1006
2018-02-04T03:28:49.388Z,1005.99
2018-02-04T03:29:29.964Z,1006.01
2018-02-04T03:30:10.527Z,1006
2018-02-04T03:30:51.112Z,1006
2018-02-04T03:31:31.679Z,1006.02
2018-02-04T03:32:12.192Z,1006.05
2018-02-04T03:32:52.748Z,1006.1
2018-02-04T03:33:33.310Z,1006.12
2018-02-04T03:34:13.886Z,1006.11
2018-02-04T03:34:54.457Z,1006.1
2018-02-04T03:35:35.033Z,1006.09
2018-02-04T03:36:15.595Z,1006.14
2018-02-04T03:36:56.166Z,1006.1
2018-02-04T03:37:36.734Z,1006.14
2018-02-04T03:38:17.283Z,1006.14
2018-02-04T03:38:57.827Z,1006.2
2018-02-04T03:39:38.381Z,1006.2
2018-02-04T03:40:18.948Z,1006.23
2018-02-04T03:40:59.521Z,1006.27
2018-02-04T03:41:40.125Z,1006.3
2018-02-04T03:42:20.691Z,1006.29
2018-02-04T03:43:01.228Z,1006.32
2018-02-04T03:43:41.787Z,1006.37
2018-02-04T03:44:22.336Z,1006.39
2018-02-04T03:45:02.909Z,1006.41
2018-02-04T03:45:43.466Z,1006.46
2018-02-04T03:46:24.057Z,1006.47
2018-02-04T03:47:04.623Z,1006.49
2018-02-04T03:47:45.240Z,1006.47
2018-02-04T03:48:25.811Z,1006.52
2018-02-04T03:49:06.394Z,1006.55
2018-02-04T03:49:46.977Z,1006.57
2018-02-04T03:50:27.549Z,1006.55
2018-02-04T03:51:08.118Z,1006.59
2018-02-04T03:51:48.655Z,1006.58
2018-02-04T03:52:29.207Z,1006.64
2018-02-04T03:53:09.825Z,1006.62
2018-02-04T03:53:50.366Z,1006.6
2018-02-04T03:54:30.970Z,1006.64
2018-02-04T03:55:11.519Z,1006.64
2018-02-04T03:55:52.064Z,1006.62
2018-02-04T03:56:32.619Z,1006.6
2018-02-04T03:57:13.197Z,1006.61
2018-02-04T03:57:53.746Z,1006.66
2018-02-04T03:58:34.326Z,1006.67
2018-02-04T03:59:14.913Z,1006.69
2018-02-04T03:59:55.439Z,1006.67
2018-02-04T04:00:36.026Z,1006.68
2018-02-04T04:01:16.609Z,1006.7
2018-02-04T04:01:57.168Z,1006.72
2018-02-04T04:02:37.712Z,1006.69
2018-02-04T04:03:18.296Z,1006.72
2018-02-04T04:03:58.884Z,1006.72
2018-02-04T04:04:39.457Z,1006.76
2018-02-04T04:05:20.084Z,1006.75
2018-02-04T04:06:00.634Z,1006.75
2018-02-04T04:06:41.178Z,1006.74
2018-02-04T04:07:21.738Z,1006.75
2018-02-04T04:08:02.321Z,1006.76
2018-02-04T04:08:42.873Z,1006.81
2018-02-04T04:09:23.428Z,1006.74
2018-02-04T04:10:03.978Z,1006.76
2018-02-04T04:10:44.528Z,1006.77
2018-02-04T04:11:25.087Z,1006.81
2018-02-04T04:12:05.633Z,1006.8
2018-02-04T04:12:46.189Z,1006.85
2018-02-04T04:13:26.752Z,1006.87
2018-02-04T04:14:07.333Z,1006.88
2018-02-04T04:14:47.968Z,1006.83
2018-02-04T04:15:28.493Z,1006.9
2018-02-04T04:16:09.045Z,1006.84
2018-02-04T04:16:49.595Z,1006.86
2018-02-04T04:17:30.156Z,1006.88
2018-02-04T04:18:10.699Z,1006.92
2018-02-04T04:18:51.330Z,1006.9
2018-02-04T04:19:31.940Z,1006.87
2018-02-04T04:20:12.465Z,1006.87
2018-02-04T04:20:53.023Z,1006.89
2018-02-04T04:21:33.578Z,1006.94
2018-02-04T04:22:14.138Z,1006.97
2018-02-04T04:22:54.700Z,1006.94
2018-02-04T04:23:35.251Z,1006.98
2018-02-04T04:24:15.800Z,1006.97
2018-02-04T04:24:56.356Z,1006.98
2018-02-04T04:25:36.914Z,1007.02
2018-02-04T04:26:17.488Z,1007.05
2018-02-04T04:26:58.087Z,1007.04
2018-02-04T04:27:38.628Z,1007.09
2018-02-04T04:28:19.187Z,1007.09
2018-02-04T04:28:59.747Z,1007.11
2018-02-04T04:29:40.325Z,1007.16
2018-02-04T04:30:20.873Z,1007.18
2018-02-04T04:31:01.425Z,1007.16
2018-02-04T04:31:41.989Z,1007.18
2018-02-04T04:32:22.537Z,1007.19
2018-02-04T04:33:03.096Z,1007.16
2018-02-04T04:33:43.656Z,1007.19
2018-02-04T04:34:24.246Z,1007.23
2018-02-04T04:35:04.788Z,1007.21
2018-02-04T04:35:45.393Z,1007.18
2018-02-04T04:36:25.983Z,1007.23
2018-02-04T04:37:06.584Z,1007.21
2018-02-04T04:37:47.176Z,1007.28
2018-02-04T04:38:27.751Z,1007.21
2018-02-04T04:39:08.309Z,1007.22
2018-02-04T04:39:48.844Z,1007.24
2018-02-04T04:40:29.428Z,1007.26
2018-02-04T04:41:10.008Z,1007.29
2018-02-04T04:41:50.539Z,1007.3
2018-02-04T04:42:31.082Z,1007.27
2018-02-04T04:43:11.608Z,1007.31
2018-02-04T04:43:52.147Z,1007.32
2018-02-04T04:44:32.737Z,1007.31
2018-02-04T04:45:13.329Z,1007.32
2018-02-04T04:45:53.935Z,1007.39
2018-02-04T04:46:34.509Z,1007.36
2018-02-04T04:47:15.060Z,1007.35
2018-02-04T04:47:55.623Z,1007.43
2018-02-04T04:48:36.179Z,1007.41
2018-02-04T04:49:16.740Z,1007.38
2018-02-04T04:49:57.299Z,1007.42
2018-02-04T04:50:37.853Z,1007.43
2018-02-04T04:51:18.398Z,1007.45
2018-02-04T04:51:58.938Z,1007.45
2018-02-04T04:52:39.469Z,1007.48
2018-02-04T04:53:20.052Z,1007.49
2018-02-04T04:54:00.600Z,1007.47
2018-02-04T04:54:41.142Z,1007.5
2018-02-04T04:55:21.720Z,1007.5
2018-02-04T04:56:02.280Z,1007.54
2018-02-04T04:56:42.826Z,1007.54
2018-02-04T04:57:23.378Z,1007.5
2018-02-04T04:58:03.932Z,1007.55
2018-02-04T04:58:44.489Z,1007.54
2018-02-04T04:59:25.045Z,1007.53
2018-02-04T05:00:05.592Z,1007.55
2018-02-04T05:00:46.188Z,1007.56
2018-02-04T05:01:26.756Z,1007.55
2018-02-04T05:02:07.359Z,1007.6
2018-02-04T05:02:47.965Z,1007.57
2018-02-04T05:03:28.532Z,1007.56
2018-02-04T05:04:09.072Z,1007.66
2018-02-04T05:04:49.692Z,1007.62
2018-02-04T05:05:30.350Z,1007.67
2018-02-04T05:06:10.896Z,1007.63
2018-02-04T05:06:51.451Z,1007.65
2018-02-04T05:07:32.012Z,1007.68
2018-02-04T05:08:12.575Z,1007.68
2018-02-04T05:08:53.115Z,1007.67
2018-02-04T05:09:33.769Z,1007.68
2018-02-04T05:10:14.337Z,1007.73
2018-02-04T05:10:54.903Z,1007.7
2018-02-04T05:11:35.469Z,1007.69
2018-02-04T05:12:16.009Z,1007.72
2018-02-04T05:12:56.594Z,1007.72
2018-02-04T05:13:37.190Z,1007.68
2018-02-04T05:14:17.772Z,1007.71
2018-02-04T05:14:58.328Z,1007.78
2018-02-04T05:15:38.875Z,1007.73
2018-02-04T05:16:19.453Z,1007.77
2018-02-04T05:17:00.033Z,1007.77
2018-02-04T05:17:40.601Z,1007.76
2018-02-04T05:18:21.148Z,1007.85
2018-02-04T05:19:01.703Z,1007.86
2018-02-04T05:19:42.253Z,1007.85
2018-02-04T05:20:22.774Z,1007.83
2018-02-04T05:21:03.341Z,1007.87
2018-02-04T05:21:43.890Z,1007.88
2018-02-04T05:22:24.432Z,1007.89
2018-02-04T05:23:04.982Z,1007.89
2018-02-04T05:23:45.533Z,1007.9
2018-02-04T05:24:26.068Z,1007.94
2018-02-04T05:25:06.647Z,1007.95
2018-02-04T05:25:47.185Z,1007.9
2018-02-04T05:26:27.744Z,1007.92
2018-02-04T05:27:08.286Z,1007.92
2018-02-04T05:27:48.842Z,1007.93
2018-02-04T05:28:29.396Z,1007.91
2018-02-04T05:29:09.989Z,1007.9
2018-02-04T05:29:50.539Z,1007.95
2018-02-04T05:30:31.113Z,1007.94
2018-02-04T05:31:11.672Z,1007.94
2018-02-04T05:31:52.216Z,1007.99
2018-02-04T05:32:32.744Z,1007.97
2018-02-04T05:33:13.370Z,1007.94
2018-02-04T05:33:53.872Z,1007.99
2018-02-04T05:34:34.475Z,1007.95
2018-02-04T05:35:15.060Z,1007.97
2018-02-04T05:35:55.643Z,1007.96
2018-02-04T05:36:36.208Z,1007.94
2018-02-04T05:37:16.769Z,1008
2018-02-04T05:37:57.351Z,1007.98
2018-02-04T05:38:37.895Z,1007.97
2018-02-04T05:39:18.452Z,1008
2018-02-04T05:39:59.000Z,1008.01
2018-02-04T05:40:39.551Z,1008.08
2018-02-04T05:41:20.123Z,1008.03
2018-02-04T05:42:00.696Z,1008.09
2018-02-04T05:42:41.350Z,1008.13
2018-02-04T05:43:21.919Z,1008.09
2018-02-04T05:44:02.464Z,1008.13
2018-02-04T05:44:43.007Z,1008.15
2018-02-04T05:45:23.577Z,1008.16
2018-02-04T05:46:04.145Z,1008.2
2018-02-04T05:46:44.759Z,1008.23
2018-02-04T05:47:25.437Z,1008.22
2018-02-04T05:48:05.959Z,1008.22
2018-02-04T05:48:46.503Z,1008.21
2018-02-04T05:49:27.062Z,1008.27
2018-02-04T05:50:07.643Z,1008.27
2018-02-04T05:50:48.194Z,1008.27
2018-02-04T05:51:28.734Z,1008.26
2018-02-04T05:52:09.284Z,1008.32
2018-02-04T05:52:49.896Z,1008.33
2018-02-04T05:53:30.434Z,1008.37
2018-02-04T05:54:10.964Z,1008.35
2018-02-04T05:54:51.548Z,1008.37
2018-02-04T05:55:32.131Z,1008.41
2018-02-04T05:56:12.700Z,1008.44
2018-02-04T05:56:53.255Z,1008.47
2018-02-04T05:57:33.794Z,1008.49
2018-02-04T05:58:14.365Z,1008.54
2018-02-04T05:58:54.967Z,1008.53
2018-02-04T05:59:35.494Z,1008.55
2018-02-04T06:00:16.071Z,1008.55
2018-02-04T06:00:56.601Z,1008.6
2018-02-04T06:01:37.152Z,1008.59
2018-02-04T06:02:17.712Z,1008.57
2018-02-04T06:02:58.271Z,1008.57
2018-02-04T06:03:38.878Z,1008.57
2018-02-04T06:04:19.417Z,1008.58
2018-02-04T06:05:00.009Z,1008.59
2018-02-04T06:05:40.576Z,1008.59
2018-02-04T06:06:21.173Z,1008.62
2018-02-04T06:07:01.688Z,1008.61
2018-02-04T06:07:42.252Z,1008.69
2018-02-04T06:08:22.793Z,1008.66
2018-02-04T06:09:03.335Z,1008.72
2018-02-04T06:09:43.885Z,1008.7
2018-02-04T06:10:24.434Z,1008.71
2018-02-04T06:11:04.985Z,1008.76
2018-02-04T06:11:45.533Z,1008.83
2018-02-04T06:12:26.079Z,1008.82
2018-02-04T06:13:06.629Z,1008.8
2018-02-04T06:13:47.162Z,1008.84
2018-02-04T06:14:27.696Z,1008.85
2018-02-04T06:15:08.256Z,1008.83
2018-02-04T06:15:48.842Z,1008.85
2018-02-04T06:16:29.366Z,1008.84
2018-02-04T06:17:10.014Z,1008.86
2018-02-04T06:17:50.619Z,1008.86
2018-02-04T06:18:31.169Z,1008.92
2018-02-04T06:19:11.772Z,1008.93
2018-02-04T06:19:52.312Z,1008.98
2018-02-04T06:20:32.894Z,1009
2018-02-04T06:21:13.452Z,1009.02
2018-02-04T06:21:54.004Z,1009.04
2018-02-04T06:22:34.600Z,1009.05
2018-02-04T06:23:15.212Z,1009.06
2018-02-04T06:23:55.747Z,1009.06
2018-02-04T06:24:36.362Z,1009.04
2018-02-04T06:25:16.841Z,1009.1
2018-02-04T06:25:57.392Z,1009.07
2018-02-04T06:26:37.960Z,1009.1
2018-02-04T06:27:18.515Z,1009.1
2018-02-04T06:27:59.075Z,1009.13
2018-02-04T06:28:39.614Z,1009.14
2018-02-04T06:29:20.185Z,1009.1
2018-02-04T06:30:00.724Z,1009.15
2018-02-04T06:30:41.332Z,1009.18
2018-02-04T06:31:21.895Z,1009.18
2018-02-04T06:32:02.431Z,1009.19
2018-02-04T06:32:42.988Z,1009.25
2018-02-04T06:33:23.559Z,1009.22
2018-02-04T06:34:04.203Z,1009.26
2018-02-04T06:34:44.863Z,1009.28
2018-02-04T06:35:25.649Z,1009.3
2018-02-04T06:36:06.140Z,1009.28
2018-02-04T06:36:46.715Z,1009.34
2018-02-04T06:37:27.286Z,1009.32
2018-02-04T06:38:07.848Z,1009.37
2018-02-04T06:38:48.498Z,1009.4
2018-02-04T06:39:29.031Z,1009.42
2018-02-04T06:40:09.672Z,1009.36
2018-02-04T06:40:50.313Z,1009.43
2018-02-04T06:41:30.779Z,1009.44
2018-02-04T06:42:11.582Z,1009.46
2018-02-04T06:42:52.072Z,1009.43
2018-02-04T06:43:32.644Z,1009.5
2018-02-04T06:44:13.283Z,1009.44
2018-02-04T06:44:53.931Z,1009.5
2018-02-04T06:45:34.399Z,1009.48
2018-02-04T06:46:15.090Z,1009.57
2018-02-04T06:46:55.689Z,1009.49
2018-02-04T06:47:36.405Z,1009.55
2018-02-04T06:48:17.014Z,1009.53
2018-02-04T06:48:57.581Z,1009.54
2018-02-04T06:49:38.181Z,1009.61
2018-02-04T06:50:18.872Z,1009.67
2018-02-04T06:50:59.437Z,1009.68
2018-02-04T06:51:40.031Z,1009.66
2018-02-04T06:52:20.583Z,1009.7
2018-02-04T06:53:01.178Z,1009.71
2018-02-04T06:53:41.780Z,1009.7
2018-02-04T06:54:22.371Z,1009.7
2018-02-04T06:55:02.936Z,1009.71
2018-02-04T06:55:43.516Z,1009.75
2018-02-04T06:56:24.091Z,1009.77
2018-02-04T06:57:04.680Z,1009.75
2018-02-04T06:57:45.261Z,1009.78
2018-02-04T06:58:25.831Z,1009.79
2018-02-04T06:59:06.372Z,1009.83
2018-02-04T06:59:46.940Z,1009.81
2018-02-04T07:00:27.458Z,1009.81
2018-02-04T07:01:07.989Z,1009.85
2018-02-04T07:01:48.529Z,1009.84
2018-02-04T07:02:29.112Z,1009.83
2018-02-04T07:03:09.639Z,1009.88
2018-02-04T07:03:50.269Z,1009.87
2018-02-04T07:04:30.818Z,1009.84
2018-02-04T07:05:11.388Z,1009.85
2018-02-04T07:05:51.933Z,1009.91
2018-02-04T07:06:32.537Z,1009.88
2018-02-04T07:07:13.154Z,1009.92
2018-02-04T07:07:53.680Z,1009.94
2018-02-04T07:08:34.245Z,1009.95
2018-02-04T07:09:14.822Z,1009.98
2018-02-04T07:09:55.373Z,1009.98
2018-02-04T07:10:35.924Z,1010.06
2018-02-04T07:11:16.510Z,1010.07
2018-02-04T07:11:57.064Z,1010.11
2018-02-04T07:12:37.643Z,1010.13
2018-02-04T07:13:18.192Z,1010.13
2018-02-04T07:13:58.739Z,1010.13
2018-02-04T07:14:39.315Z,1010.17
2018-02-04T07:15:19.885Z,1010.16
2018-02-04T07:16:00.442Z,1010.18
2018-02-04T07:16:41.008Z,1010.19
2018-02-04T07:17:21.558Z,1010.25
2018-02-04T07:18:02.109Z,1010.24
2018-02-04T07:18:42.678Z,1010.23
2018-02-04T07:19:23.242Z,1010.23
2018-02-04T07:20:03.796Z,1010.24
2018-02-04T07:20:44.349Z,1010.2
2018-02-04T07:21:24.983Z,1010.25
2018-02-04T07:22:05.550Z,1010.29
2018-02-04T07:22:46.125Z,1010.26
2018-02-04T07:23:26.701Z,1010.31
2018-02-04T07:24:07.249Z,1010.29
2018-02-04T07:24:47.798Z,1010.3
2018-02-04T07:25:28.350Z,1010.3
2018-02-04T07:26:08.923Z,1010.3
2018-02-04T07:26:49.457Z,1010.33
2018-02-04T07:27:30.004Z,1010.33
2018-02-04T07:28:10.564Z,1010.31
2018-02-04T07:28:51.111Z,1010.39
2018-02-04T07:29:31.653Z,1010.35
2018-02-04T07:30:12.208Z,1010.39
2018-02-04T07:30:52.762Z,1010.41
2018-02-04T07:31:33.317Z,1010.43
2018-02-04T07:32:13.900Z,1010.45
2018-02-04T07:32:54.453Z,1010.49
2018-02-04T07:33:35.039Z,1010.42
2018-02-04T07:34:15.591Z,1010.47
2018-02-04T07:34:56.165Z,1010.51
2018-02-04T07:35:36.722Z,1010.51
2018-02-04T07:36:17.270Z,1010.46
2018-02-04T07:36:57.855Z,1010.44
2018-02-04T07:37:38.382Z,1010.51
2018-02-04T07:38:18.938Z,1010.46
2018-02-04T07:38:59.483Z,1010.46
2018-02-04T07:39:40.035Z,1010.52
2018-02-04T07:40:20.618Z,1010.5
2018-02-04T07:41:01.177Z,1010.51
2018-02-04T07:41:41.758Z,1010.55
2018-02-04T07:42:22.341Z,1010.57
2018-02-04T07:43:02.888Z,1010.58
2018-02-04T07:43:43.443Z,1010.64
2018-02-04T07:44:24.025Z,1010.61
2018-02-04T07:45:04.583Z,1010.62
2018-02-04T07:45:45.161Z,1010.64
2018-02-04T07:46:25.788Z,1010.66
2018-02-04T07:47:06.337Z,1010.66
2018-02-04T07:47:46.905Z,1010.65
2018-02-04T07:48:27.442Z,1010.64
2018-02-04T07:49:08.045Z,1010.62
2018-02-04T07:49:48.619Z,1010.62
2018-02-04T07:50:29.190Z,1010.66
2018-02-04T07:51:09.742Z,1010.68
2018-02-04T07:51:50.290Z,1010.69
2018-02-04T07:52:30.851Z,1010.69
2018-02-04T07:53:11.392Z,1010.73
2018-02-04T07:53:51.950Z,1010.73
2018-02-04T07:54:32.513Z,1010.76
2018-02-04T07:55:13.053Z,1010.79
2018-02-04T07:55:53.579Z,1010.76
2018-02-04T07:56:34.192Z,1010.77
2018-02-04T07:57:14.707Z,1010.78
2018-02-04T07:57:55.289Z,1010.79
2018-02-04T07:58:35.867Z,1010.84
2018-02-04T07:59:16.388Z,1010.85
2018-02-04T07:59:56.970Z,1010.84
2018-02-04T08:00:37.534Z,1010.88
2018-02-04T08:01:18.076Z,1010.86
2018-02-04T08:01:58.638Z,1010.88
2018-02-04T08:02:39.227Z,1010.85
2018-02-04T08:03:19.775Z,1010.86
2018-02-04T08:04:00.388Z,1010.89
2018-02-04T08:04:40.960Z,1010.89
2018-02-04T08:05:21.515Z,1010.85
2018-02-04T08:06:02.068Z,1010.92
2018-02-04T08:06:42.624Z,1010.92
2018-02-04T08:07:23.158Z,1010.89
2018-02-04T08:08:03.710Z,1010.86
2018-02-04T08:08:44.278Z,1010.9
2018-02-04T08:09:24.820Z,1010.96
2018-02-04T08:10:05.355Z,1010.92
2018-02-04T08:10:45.954Z,1010.98
2018-02-04T08:11:26.547Z,1010.93
2018-02-04T08:12:07.292Z,1010.98
2018-02-04T08:12:47.837Z,1010.98